Latest METARs, TAFs and NOTAMs for MYNN


---------------------------------------------------------------------------
	(OBSERVATIONS)
MYNN 021600Z 27012KT 9999 VCSH FEW016CB SCT018 31/23 A3004 RMK
    CB/N--NE--E VCSH/E/STNRY=
MYNN 021500Z 26008KT 9999 SCT018TCU 32/26 A3005 RMK TCU/N=
MYNN 021400Z 23010KT 9999 FEW018 SCT220 30/24 A3006=
---------------------------------------------------------------------------
	(TERMINAL AREA FORECAST)
MYNN 021600Z 0218/0318 28005KT 9999 FEW015CB SCT018 BKN220
    PROB30 TEMPO 0312/0318 35005KT 8000 SHRA FEW012CB SCT015
    BKN035=
---------------------------------------------------------------------------
	(NOTAMS)


MYNN A0068/13 VOR Y RWY 14 FEEDER RTE FM MAJUR TO MUNIE NOT AVBL
    VOR Y RWY 14 FEEDER RTE FM MELON TO MUNIE NOT AVBL. SFC -
    UNL, 19 APR 19:55 2013 UNTIL PERM. CREATED: 19 APR 19:51
    2013

MYNN A0069/13 VOR Y RWY 09 FEEDER RTE FM MAJUR TO MUSSE NOT AVBL
    REMOVE PROCEDURE NOTE 'RADAR REQUIRED' FM APP CHART. SFC
    - UNL, 19 APR 19:55 2013 UNTIL PERM. CREATED: 19 APR 19:52
    2013

MYNN A0070/13 VOR Y RWY 32 FEEDER RTE FM PRUNE TO WELKS NOT AVBL
    REMOVE PROCEDURE NOTE 'RADAR REQUIRED' FM APP CHART. SFC
    - UNL, 19 APR 19:55 2013 UNTIL PERM. CREATED: 19 APR 19:54
    2013

MYNN A0117/14 WITH THE EXCEPTION OF MYNN AND MYGF RNAV PROC IN
    THE BAHAMAS ARE NOT AUTH DUE TO AIRSPACE CLASSIFICATION RESTRICTIONS.
    29 JUL 12:00 2014 UNTIL 31 OCT 21:00 2014. CREATED: 28 JUL
    16:23 2014

MYNN A0158/14 SIX TEMPORARY CRANES WITH RED OBSTRUCTION LIGHTS
    ON TOP LOCATION N 25 04 14.65 W 077 23 53.63 CRANES 427FT
    AMSL 3.81 NM NE OF RWY 27 ILS RWY 14, RNAV (GNSS) RWY 09
    RNAV (GNSS) RWY 14 RNAV (GNSS) RWY 32 VOR Z RWY 09 VOR Y
    RWY 09 VOR Z RWY 14 VOR Y RWY 14 VOR Z RWY 32 VOR Y RWY 32
    SRE RWY 09 SRE RWY 14 SRE RWY 32 CIRCLING CAT C OCA 860 /
    OCH 844 VIS CAT C 4600) CORRECTION. 01 OCT 16:00 2014 UNTIL
    30 DEC 22:00 2014. CREATED: 01 OCT 15:05 2014

MYNN A0165/14 CHECKLIST (A) SERIES YEAR=2010 0277 YEAR=2013 0068
    0069 0070 YEAR=2014 0117 0128 0151 0152 0153 0154 0155 0156
    0157 0158 0159 0160 0161 0162 0163 0164 LATEST PUBLICATIONS
    AIP AMDT 02/14 EFFECTIVE AUGUST 21, 2014 AIC 04/14. 01 OCT
    16:00 2014 UNTIL 31 OCT 22:00 2014. CREATED: 01 OCT 15:07
    2014

---------------------------------------------------------------------------